Aérodrome :
LOGIN :

S'inscrire | Disclaimer

   EN    FR    IT 

 










Légende :    VFR   VFR Marginal   IFR   IFR Intensif   IFR Très Intensif
Visi : 
Plafond : 
>= 8 km
>= 3000ft
5 à 8 km
1000 à 3000 ft
1500m à 5 km
500 à 1000 ft
800 à 1500m
200 à 500 ft
< 800m
< 200 ft
Symboles :   Orages  Brouillard  Fortes neiges  Fortes précipitations  Vent > 20 kt
SIGMETs :   Divers  Orages  Givrage  Turbulence  Onde Orograph.  Cendres Volcan.






- Altitude de l'aérodrome : 26 ft
- Code IATA : BIA


LFKB - Bastia

DERNIER METAR :
  • 282330Z AUTO 22004KT CAVOK 15/13 Q1015 TEMPO BKN010

METARs EXPIRÉS :
  • 282300Z AUTO 21003KT CAVOK 15/13 Q1015 TEMPO BKN010
  • 282230Z AUTO 25003KT CAVOK 16/14 Q1015 TEMPO BKN010
  • 282200Z AUTO 19002KT CAVOK 16/14 Q1015 TEMPO BKN010
  • 282130Z AUTO 20004KT CAVOK 16/14 Q1015 TEMPO BKN010
  • 282100Z AUTO 22003KT CAVOK 17/14 Q1015 TEMPO BKN010
  • 282030Z AUTO 21003KT 9999 FEW074 17/14 Q1015 TEMPO BKN010
  • 282000Z AUTO 23003KT 9999 FEW072 18/15 Q1015 TEMPO BKN010
  • 281930Z AUTO VRB02KT 9999 FEW072 19/15 Q1014 TEMPO BKN010
  • 281900Z AUTO 01003KT 9999 0900 R34/P5000 // NSC 20/16 Q1014

TAF TAF LFKB
Valide du 28 à 21h jusqu'au 29 à 21h UTC


282000Z 2821/2921 23003KT 9999 FEW030 TX25/2913Z TN15/2904Z
PROB30
TEMPO 2821/2905 BKN010
BECMG 2907/2909 05010KT
BECMG 2919/2921 VRB03KT
ATIS : +33 4 95 59 19 40



MET'MAP, la Météo Aéronautique d'un coup d'oeil ! - Copyright ORBIFLY Décembre 2007 - Disclaimer

ORBIFLY MET'MAP TEAM :

Programmation & Développement : Alexandra Zaïnal
Sur une idée originale de : Baudouin d'Aumeries
Soutien technique & logistique : Manuel Goepfert
Assistance : Marc-Olivier Méhu




SOURCES & CREDITS :

   NOAA